createdAt,value
2017-09-19T00:00:03.022Z,0
2017-09-19T00:05:03.339Z,0
2017-09-19T00:10:02.804Z,0
2017-09-19T00:15:03.419Z,0
2017-09-19T00:20:02.995Z,0
2017-09-19T00:25:02.458Z,0
2017-09-19T00:30:02.823Z,0
2017-09-19T00:35:03.423Z,0
2017-09-19T00:40:03.186Z,0
2017-09-19T00:45:02.561Z,0
2017-09-19T00:50:03.054Z,0
2017-09-19T00:55:03.432Z,0
2017-09-19T01:00:02.965Z,0
2017-09-19T01:05:03.338Z,0
2017-09-19T01:10:02.801Z,0
2017-09-19T01:15:03.411Z,0
2017-09-19T01:20:03.188Z,0
2017-09-19T01:25:02.869Z,0
2017-09-19T01:30:03.287Z,0
2017-09-19T01:35:02.664Z,0
2017-09-19T01:40:03.162Z,0
2017-09-19T01:45:02.824Z,0
2017-09-19T01:50:03.228Z,0
2017-09-19T01:55:02.600Z,0
2017-09-19T02:00:03.211Z,0
2017-09-19T02:05:02.569Z,0
2017-09-19T02:10:03.513Z,0
2017-09-19T02:15:02.928Z,0
2017-09-19T02:20:03.384Z,0
2017-09-19T02:25:03.052Z,0
2017-09-19T02:30:02.713Z,0
2017-09-19T02:35:03.352Z,0
2017-09-19T02:40:02.800Z,0
2017-09-19T02:45:03.573Z,0
2017-09-19T02:50:03.337Z,0
2017-09-19T02:55:02.911Z,0
2017-09-19T03:00:03.247Z,0
2017-09-19T03:05:02.683Z,0
2017-09-19T03:10:03.407Z,0
2017-09-19T03:15:02.799Z,0
2017-09-19T03:20:03.452Z,0
2017-09-19T03:25:03.029Z,0
2017-09-19T03:30:03.400Z,0
2017-09-19T03:35:02.824Z,0
2017-09-19T03:40:03.425Z,0
2017-09-19T03:45:03.022Z,0
2017-09-19T03:50:02.511Z,0
2017-09-19T03:55:02.940Z,0
2017-09-19T04:00:03.356Z,0
2017-09-19T04:05:02.935Z,0
2017-09-19T04:10:02.548Z,0
2017-09-19T04:15:03.012Z,0
2017-09-19T04:20:02.627Z,0
2017-09-19T04:25:03.205Z,0
2017-09-19T04:30:02.891Z,0
2017-09-19T04:40:03.137Z,0
2017-09-19T04:45:02.627Z,0
2017-09-19T04:50:03.304Z,2
2017-09-19T04:55:02.885Z,3
2017-09-19T05:00:02.492Z,6
2017-09-19T05:05:02.893Z,39
2017-09-19T05:10:03.374Z,46
2017-09-19T05:15:02.777Z,51
2017-09-19T05:20:03.212Z,70
2017-09-19T05:25:02.784Z,122
2017-09-19T05:30:03.199Z,114
2017-09-19T05:35:02.697Z,278
2017-09-19T05:40:03.138Z,302
2017-09-19T05:45:02.734Z,300
2017-09-19T05:50:03.402Z,403
2017-09-19T05:55:02.950Z,627
2017-09-19T06:00:03.334Z,627
2017-09-19T06:05:02.763Z,605
2017-09-19T06:10:03.235Z,443
2017-09-19T06:15:02.798Z,573
2017-09-19T06:20:03.159Z,628
2017-09-19T06:25:02.519Z,677
2017-09-19T06:30:02.942Z,597
2017-09-19T06:35:02.626Z,508
2017-09-19T06:40:03.054Z,375
2017-09-19T06:45:02.659Z,389
2017-09-19T06:50:03.301Z,760
2017-09-19T06:55:02.873Z,894
2017-09-19T07:00:03.614Z,999
2017-09-19T07:05:03.038Z,893
2017-09-19T07:10:02.727Z,869
2017-09-19T07:15:03.118Z,1000
2017-09-19T07:20:02.691Z,1000
2017-09-19T07:25:03.127Z,1000
2017-09-19T07:30:02.787Z,1000
2017-09-19T07:35:03.215Z,1000
2017-09-19T07:40:02.640Z,1000
2017-09-19T07:45:03.089Z,1000
2017-09-19T07:50:02.530Z,1000
2017-09-19T07:55:03.001Z,1000
2017-09-19T08:00:02.575Z,1000
2017-09-19T08:05:03.184Z,1000
2017-09-19T08:10:02.666Z,1000
2017-09-19T08:15:03.246Z,1000
2017-09-19T08:20:02.769Z,2000
2017-09-19T08:25:03.341Z,3000
2017-09-19T08:30:02.762Z,2000
2017-09-19T08:35:03.341Z,2000
2017-09-19T08:40:02.779Z,2000
2017-09-19T08:45:03.342Z,1000
2017-09-19T08:50:02.922Z,2000
2017-09-19T08:55:03.344Z,2000
2017-09-19T09:00:02.698Z,2000
2017-09-19T09:05:03.289Z,2000
2017-09-19T09:10:02.717Z,2000
2017-09-19T09:15:03.122Z,2000
2017-09-19T09:20:02.549Z,2000
2017-09-19T09:25:02.979Z,3000
2017-09-19T09:30:02.517Z,3000
2017-09-19T09:35:02.925Z,4000
2017-09-19T09:40:03.393Z,5000
2017-09-19T09:45:02.774Z,5000
2017-09-19T09:50:03.407Z,3000
2017-09-19T09:55:02.864Z,2000
2017-09-19T10:00:03.402Z,3000
2017-09-19T10:05:02.716Z,4000
2017-09-19T10:10:03.185Z,6000
2017-09-19T10:15:02.594Z,4000
2017-09-19T10:20:03.089Z,4000
2017-09-19T10:25:02.701Z,6000
2017-09-19T10:30:03.268Z,8000
2017-09-19T10:35:02.719Z,11000
2017-09-19T10:40:03.161Z,18000
2017-09-19T10:45:02.587Z,17000
2017-09-19T10:50:03.120Z,15000
2017-09-19T10:55:02.653Z,10000
2017-09-19T11:00:03.089Z,7000
2017-09-19T11:05:02.548Z,5000
2017-09-19T11:10:03.156Z,4000
2017-09-19T11:15:02.768Z,5000
2017-09-19T11:20:03.257Z,8000
2017-09-19T11:25:02.620Z,6000
2017-09-19T11:30:03.172Z,7000
2017-09-19T11:35:02.507Z,8000
2017-09-19T11:40:02.919Z,7000
2017-09-19T11:45:03.265Z,6000
2017-09-19T11:50:02.837Z,7000
2017-09-19T11:55:03.448Z,8000
2017-09-19T12:00:03.003Z,9000
2017-09-19T12:05:02.437Z,10000
2017-09-19T12:10:02.939Z,9000
2017-09-19T12:15:03.330Z,9000
2017-09-19T12:20:02.807Z,13000
2017-09-19T12:25:03.207Z,7000
2017-09-19T12:30:02.736Z,7000
2017-09-19T12:35:03.383Z,8000
2017-09-19T12:40:02.805Z,10000
2017-09-19T12:45:03.342Z,11000
2017-09-19T12:50:02.826Z,7000
2017-09-19T12:55:03.407Z,7000
2017-09-19T13:00:02.956Z,6000
2017-09-19T13:05:02.610Z,8000
2017-09-19T13:10:03.194Z,6000
2017-09-19T13:15:02.640Z,7000
2017-09-19T13:20:03.154Z,9000
2017-09-19T13:25:02.721Z,10000
2017-09-19T13:30:03.097Z,7000
2017-09-19T13:35:02.740Z,7000
2017-09-19T13:40:03.188Z,12000
2017-09-19T13:45:02.805Z,17000
2017-09-19T13:50:03.427Z,6000
2017-09-19T13:55:02.937Z,7000
2017-09-19T14:00:03.295Z,8000
2017-09-19T14:05:02.834Z,11000
2017-09-19T14:10:03.323Z,9000
2017-09-19T14:15:02.844Z,5000
2017-09-19T14:20:03.334Z,8000
2017-09-19T14:25:02.762Z,11000
2017-09-19T14:30:03.177Z,14000
2017-09-19T14:35:02.706Z,20000
2017-09-19T14:40:03.153Z,14000
2017-09-19T14:45:02.662Z,8000
2017-09-19T14:50:03.322Z,11000
2017-09-19T14:55:02.956Z,8000
2017-09-19T15:00:03.435Z,10000
2017-09-19T15:05:03.001Z,13000
2017-09-19T15:10:02.729Z,12000
2017-09-19T15:15:03.190Z,18000
2017-09-19T15:20:02.605Z,9000
2017-09-19T15:25:03.011Z,6000
2017-09-19T15:30:02.593Z,5000
2017-09-19T15:35:03.053Z,8000
2017-09-19T15:40:02.781Z,5000
2017-09-19T15:45:03.298Z,5000
2017-09-19T15:50:02.851Z,7000
2017-09-19T15:55:02.482Z,8000
2017-09-19T16:00:02.903Z,5000
2017-09-19T16:05:03.367Z,5000
2017-09-19T16:10:02.881Z,10000
2017-09-19T16:15:03.246Z,2000
2017-09-19T16:20:02.877Z,2000
2017-09-19T16:25:02.530Z,2000
2017-09-19T16:30:03.105Z,2000
2017-09-19T16:35:02.763Z,1000
2017-09-19T16:40:03.374Z,1000
2017-09-19T16:45:02.896Z,991
2017-09-19T16:50:02.683Z,854
2017-09-19T16:55:03.124Z,741
2017-09-19T17:00:02.697Z,648
2017-09-19T17:05:02.621Z,386
2017-09-19T17:15:02.827Z,174
2017-09-19T17:20:03.279Z,137
2017-09-19T17:25:02.851Z,108
2017-09-19T17:30:02.491Z,85
2017-09-19T17:35:02.981Z,74
2017-09-19T17:40:02.614Z,61
2017-09-19T17:45:03.220Z,40
2017-09-19T17:50:02.781Z,32
2017-09-19T17:55:03.244Z,17
2017-09-19T18:00:02.756Z,6
2017-09-19T18:05:02.751Z,2
2017-09-19T18:10:03.222Z,1
2017-09-19T18:15:02.804Z,0
2017-09-19T18:20:03.365Z,0
2017-09-19T18:25:02.946Z,0
2017-09-19T18:30:02.625Z,0
2017-09-19T18:35:03.030Z,0
2017-09-19T18:40:02.494Z,0
2017-09-19T18:45:03.133Z,0
2017-09-19T18:50:02.803Z,0
2017-09-19T19:00:03.111Z,0
2017-09-19T19:05:02.512Z,0
2017-09-19T19:10:03.137Z,0
2017-09-19T19:15:02.758Z,0
2017-09-19T19:20:03.394Z,0
2017-09-19T19:25:02.979Z,0
2017-09-19T19:30:02.593Z,0
2017-09-19T19:35:03.210Z,0
2017-09-19T19:40:02.817Z,0
2017-09-19T19:45:03.426Z,0
2017-09-19T19:50:02.852Z,0
2017-09-19T19:55:02.476Z,0
2017-09-19T20:00:03.075Z,0
2017-09-19T20:05:02.445Z,0
2017-09-19T20:10:02.961Z,0
2017-09-19T20:15:02.637Z,0
2017-09-19T20:20:03.229Z,0
2017-09-19T20:25:02.779Z,0
2017-09-19T20:30:03.374Z,0
2017-09-19T20:35:02.748Z,0
2017-09-19T20:40:03.245Z,0
2017-09-19T20:45:02.833Z,0
2017-09-19T20:50:03.223Z,0
2017-09-19T20:55:02.961Z,0
2017-09-19T21:00:03.002Z,0
2017-09-19T21:05:02.922Z,0
2017-09-19T21:10:03.014Z,0
2017-09-19T21:15:02.681Z,0
2017-09-19T21:20:03.211Z,0
2017-09-19T21:25:02.772Z,0
2017-09-19T21:30:03.219Z,0
2017-09-19T21:35:02.842Z,0
2017-09-19T21:40:03.295Z,0
2017-09-19T21:45:02.672Z,0
2017-09-19T21:50:03.029Z,0
2017-09-19T21:55:03.438Z,0
2017-09-19T22:00:03.081Z,0
2017-09-19T22:05:02.470Z,0
2017-09-19T22:10:03.121Z,0
2017-09-19T22:20:02.469Z,0
2017-09-19T22:25:02.875Z,0
2017-09-19T22:30:02.454Z,0
2017-09-19T22:35:03.066Z,0
2017-09-19T22:40:02.510Z,0
2017-09-19T22:45:03.049Z,0
2017-09-19T22:50:02.451Z,0
2017-09-19T22:55:02.872Z,0
2017-09-19T23:00:02.974Z,0
2017-09-19T23:05:02.779Z,0
2017-09-19T23:10:03.295Z,0
2017-09-19T23:15:02.630Z,0
2017-09-19T23:20:03.092Z,0
2017-09-19T23:25:02.540Z,0
2017-09-19T23:30:02.956Z,0
2017-09-19T23:35:03.401Z,0
2017-09-19T23:40:02.820Z,0
2017-09-19T23:45:03.404Z,0
2017-09-19T23:50:03.112Z,0
2017-09-19T23:55:02.666Z,0
